createdAt,value
2019-05-26T00:01:01.259Z,8.74
2019-05-26T00:05:03.407Z,8.63
2019-05-26T00:09:06.643Z,8.55
2019-05-26T00:13:08.794Z,8.45
2019-05-26T00:17:10.905Z,8.47
2019-05-26T00:21:14.790Z,8.42
2019-05-26T00:25:17.100Z,8.32
2019-05-26T00:29:19.151Z,8.20
2019-05-26T00:33:21.373Z,8.12
2019-05-26T00:37:23.496Z,8.04
2019-05-26T00:41:26.654Z,8.02
2019-05-26T00:45:28.834Z,7.94
2019-05-26T00:49:31.013Z,7.83
2019-05-26T00:53:33.108Z,7.81
2019-05-26T00:57:35.159Z,7.80
2019-05-26T01:01:37.245Z,7.73
2019-05-26T01:05:39.490Z,7.69
2019-05-26T01:09:41.628Z,7.71
2019-05-26T01:13:43.570Z,7.72
2019-05-26T01:17:45.682Z,7.76
2019-05-26T01:21:47.747Z,7.78
2019-05-26T01:25:51.055Z,7.78
2019-05-26T01:29:53.091Z,7.72
2019-05-26T01:33:55.258Z,7.74
2019-05-26T01:37:57.577Z,7.78
2019-05-26T01:41:59.682Z,7.82
2019-05-26T01:46:01.795Z,7.86
2019-05-26T01:50:04.106Z,7.78
2019-05-26T01:54:06.416Z,7.79
2019-05-26T01:58:08.833Z,7.80
2019-05-26T02:02:11.052Z,7.78
2019-05-26T02:06:13.164Z,7.75
2019-05-26T02:10:15.735Z,7.74
2019-05-26T02:14:17.809Z,7.74
2019-05-26T02:18:19.867Z,7.76
2019-05-26T02:22:21.989Z,7.86
2019-05-26T02:26:24.509Z,7.87
2019-05-26T02:30:26.732Z,7.74
2019-05-26T02:34:28.752Z,7.75
2019-05-26T02:38:30.900Z,7.65
2019-05-26T02:42:33.031Z,7.67
2019-05-26T02:46:35.248Z,7.65
2019-05-26T02:50:37.418Z,7.72
2019-05-26T02:54:39.471Z,7.85
2019-05-26T02:58:41.577Z,7.80
2019-05-26T03:02:43.946Z,7.85
2019-05-26T03:06:47.332Z,7.89
2019-05-26T03:10:51.465Z,7.94
2019-05-26T03:14:55.663Z,7.93
2019-05-26T03:18:59.700Z,7.95
2019-05-26T03:23:03.920Z,7.84
2019-05-26T03:27:06.260Z,7.80
2019-05-26T03:31:08.876Z,7.76
2019-05-26T03:35:11.650Z,7.74
2019-05-26T03:39:13.742Z,7.74
2019-05-26T03:43:15.811Z,7.88
2019-05-26T03:47:17.958Z,7.93
2019-05-26T03:51:20.131Z,8.10
2019-05-26T03:55:22.317Z,8.18
2019-05-26T03:59:24.606Z,8.24
2019-05-26T04:03:26.709Z,8.20
2019-05-26T04:07:29.055Z,8.42
2019-05-26T04:11:30.983Z,8.28
2019-05-26T04:15:33.256Z,8.37
2019-05-26T04:19:35.251Z,8.64
2019-05-26T04:23:37.419Z,8.87
2019-05-26T04:27:39.563Z,8.88
2019-05-26T04:31:41.735Z,8.82
2019-05-26T04:35:43.972Z,8.78
2019-05-26T04:39:46.094Z,8.83
2019-05-26T04:43:48.257Z,8.92
2019-05-26T04:47:50.329Z,8.83
2019-05-26T04:51:52.400Z,8.95
2019-05-26T04:55:54.544Z,9.43
2019-05-26T04:59:56.548Z,9.80
2019-05-26T05:03:58.693Z,9.61
2019-05-26T05:08:00.937Z,9.28
2019-05-26T05:12:03.020Z,9.15
2019-05-26T05:16:05.065Z,9.14
2019-05-26T05:20:07.384Z,8.96
2019-05-26T05:24:09.546Z,9.15
2019-05-26T05:28:11.639Z,9.55
2019-05-26T05:32:13.668Z,9.78
2019-05-26T05:36:15.789Z,9.84
2019-05-26T05:40:19.644Z,9.90
2019-05-26T05:44:21.904Z,10.13
2019-05-26T05:48:24.052Z,10.27
2019-05-26T05:52:27.195Z,10.52
2019-05-26T05:56:29.320Z,10.80
2019-05-26T06:00:31.425Z,11.22
2019-05-26T06:04:33.582Z,11.56
2019-05-26T06:08:35.560Z,11.58
2019-05-26T06:12:37.893Z,12.06
2019-05-26T06:16:40.024Z,11.87
2019-05-26T06:20:42.113Z,12.12
2019-05-26T06:24:44.330Z,12.48
2019-05-26T06:28:46.433Z,12.98
2019-05-26T06:32:49.609Z,13.18
2019-05-26T06:36:51.539Z,12.86
2019-05-26T06:40:53.825Z,13.17
2019-05-26T06:44:56.113Z,13.24
2019-05-26T06:48:58.301Z,13.17
2019-05-26T06:53:00.429Z,13.16
2019-05-26T06:57:02.731Z,12.98
2019-05-26T07:01:04.910Z,13.05
2019-05-26T07:05:07.499Z,13.07
2019-05-26T07:09:09.653Z,12.71
2019-05-26T07:13:11.945Z,12.57
2019-05-26T07:17:14.077Z,12.62
2019-05-26T07:21:16.271Z,12.42
2019-05-26T07:25:18.547Z,12.34
2019-05-26T07:29:20.733Z,12.21
2019-05-26T07:33:22.818Z,11.84
2019-05-26T07:37:24.938Z,11.71
2019-05-26T07:41:27.094Z,11.62
2019-05-26T07:45:29.349Z,11.47
2019-05-26T07:49:31.659Z,11.38
2019-05-26T07:53:33.811Z,11.29
2019-05-26T07:57:35.903Z,10.98
2019-05-26T08:01:38.120Z,10.90
2019-05-26T08:05:40.259Z,10.72
2019-05-26T08:09:42.540Z,10.61
2019-05-26T08:13:44.593Z,10.49
2019-05-26T08:17:46.744Z,10.41
2019-05-26T08:21:48.702Z,10.45
2019-05-26T08:25:50.770Z,10.27
2019-05-26T08:29:52.951Z,10.27
2019-05-26T08:33:55.040Z,10.36
2019-05-26T08:37:57.198Z,10.56
2019-05-26T08:41:59.586Z,10.66
2019-05-26T08:46:01.766Z,10.72
2019-05-26T08:50:04.085Z,10.97
2019-05-26T08:54:06.432Z,11.05
2019-05-26T08:58:08.717Z,11.05
2019-05-26T09:02:10.874Z,11.19
2019-05-26T09:06:12.973Z,11.22
2019-05-26T09:10:16.533Z,11.36
2019-05-26T09:14:18.812Z,11.46
2019-05-26T09:18:20.887Z,11.44
2019-05-26T09:22:22.932Z,11.52
2019-05-26T09:26:24.948Z,11.58
2019-05-26T09:30:27.156Z,11.50
2019-05-26T09:34:29.475Z,11.50
2019-05-26T09:38:31.529Z,11.53
2019-05-26T09:42:33.893Z,11.76
2019-05-26T09:46:36.883Z,11.99
2019-05-26T09:50:40.616Z,11.78
2019-05-26T09:54:43.161Z,11.64
2019-05-26T09:58:45.581Z,11.34
2019-05-26T10:02:47.784Z,11.24
2019-05-26T10:06:49.725Z,10.95
2019-05-26T10:10:51.846Z,10.86
2019-05-26T10:14:54.054Z,10.87
2019-05-26T10:18:56.202Z,10.82
2019-05-26T10:22:58.354Z,10.59
2019-05-26T10:27:00.441Z,10.57
2019-05-26T10:31:02.645Z,10.37
2019-05-26T10:35:05.233Z,10.28
2019-05-26T10:39:08.707Z,10.31
2019-05-26T10:43:10.808Z,10.22
2019-05-26T10:47:12.948Z,10.26
2019-05-26T10:51:14.962Z,10.50
2019-05-26T10:55:17.133Z,10.51
2019-05-26T10:59:19.017Z,10.64
2019-05-26T11:03:21.163Z,11.04
2019-05-26T11:07:26.665Z,11.26
2019-05-26T11:11:26.857Z,11.13
2019-05-26T11:15:28.975Z,11.26
2019-05-26T11:19:31.096Z,11.59
2019-05-26T11:23:33.200Z,11.97
2019-05-26T11:27:35.501Z,12.45
2019-05-26T11:31:37.923Z,12.29
2019-05-26T11:35:39.739Z,11.59
2019-05-26T11:39:41.714Z,11.37
2019-05-26T11:43:43.748Z,11.42
2019-05-26T11:47:45.912Z,11.38
2019-05-26T11:51:47.688Z,11.15
2019-05-26T11:55:49.879Z,11.07
2019-05-26T11:59:51.991Z,10.83
2019-05-26T12:03:55.179Z,10.69
2019-05-26T12:07:58.560Z,10.69
2019-05-26T12:12:00.693Z,10.63
2019-05-26T12:16:02.736Z,10.72
2019-05-26T12:20:05.833Z,10.71
2019-05-26T12:24:09.554Z,10.37
2019-05-26T12:28:11.807Z,10.54
2019-05-26T12:32:14.168Z,10.50
2019-05-26T12:36:16.938Z,10.49
2019-05-26T12:40:19.211Z,10.56
2019-05-26T12:44:21.493Z,10.68
2019-05-26T12:48:23.758Z,10.60
2019-05-26T12:52:26.772Z,10.76
2019-05-26T12:56:29.702Z,10.66
2019-05-26T13:00:47.378Z,10.52
2019-05-26T13:04:43.009Z,10.41
2019-05-26T13:08:47.927Z,10.18
2019-05-26T13:12:51.844Z,10.09
2019-05-26T13:16:56.453Z,10.00
2019-05-26T13:21:03.801Z,10.04
2019-05-26T13:25:11.547Z,9.95
2019-05-26T13:29:15.668Z,10.00
2019-05-26T13:33:18.834Z,10.02
2019-05-26T13:37:22.624Z,10.08
2019-05-26T13:41:28.299Z,9.91
2019-05-26T13:45:33.990Z,9.93
2019-05-26T13:49:37.172Z,9.88
2019-05-26T13:53:43.472Z,9.89
2019-05-26T13:57:52.169Z,9.82
2019-05-26T14:01:55.779Z,9.66
2019-05-26T14:06:04.011Z,9.66
2019-05-26T14:10:12.439Z,9.62
2019-05-26T14:14:20.323Z,9.82
2019-05-26T14:18:30.641Z,9.92
2019-05-26T14:22:35.066Z,9.77
2019-05-26T14:26:43.147Z,9.87
2019-05-26T14:30:48.441Z,10.10
2019-05-26T14:34:54.215Z,10.17
2019-05-26T14:38:59.325Z,10.05
2019-05-26T14:43:03.493Z,10.02
2019-05-26T14:47:06.179Z,9.70
2019-05-26T14:51:08.250Z,9.58
2019-05-26T14:55:10.551Z,9.51
2019-05-26T14:59:12.582Z,9.40
2019-05-26T15:03:14.722Z,9.12
2019-05-26T15:07:16.873Z,9.03
2019-05-26T15:11:18.873Z,9.05
2019-05-26T15:15:21.288Z,9.04
2019-05-26T15:19:23.487Z,8.93
2019-05-26T15:23:25.780Z,8.83
2019-05-26T15:27:27.894Z,8.90
2019-05-26T15:31:30.247Z,9.00
2019-05-26T15:35:32.473Z,8.97
2019-05-26T15:39:34.893Z,9.00
2019-05-26T15:43:37.021Z,8.96
2019-05-26T15:47:39.064Z,8.93
2019-05-26T15:51:41.152Z,8.96
2019-05-26T15:55:43.638Z,9.04
2019-05-26T15:59:45.787Z,8.99
2019-05-26T16:03:48.078Z,9.04
2019-05-26T16:07:50.709Z,9.06
2019-05-26T16:11:53.995Z,9.10
2019-05-26T16:15:56.080Z,9.16
2019-05-26T16:19:58.145Z,9.13
2019-05-26T16:24:00.155Z,9.13
2019-05-26T16:28:02.607Z,9.19
2019-05-26T16:32:05.028Z,9.14
2019-05-26T16:36:07.153Z,9.01
2019-05-26T16:40:09.568Z,8.95
2019-05-26T16:44:12.320Z,9.02
2019-05-26T16:48:14.447Z,9.11
2019-05-26T16:52:17.493Z,9.01
2019-05-26T16:56:19.700Z,9.03
2019-05-26T17:00:22.056Z,9.07
2019-05-26T17:04:24.273Z,9.14
2019-05-26T17:08:26.344Z,9.03
2019-05-26T17:12:28.360Z,9.04
2019-05-26T17:16:30.532Z,9.08
2019-05-26T17:20:32.681Z,9.06
2019-05-26T17:24:35.164Z,8.94
2019-05-26T17:28:37.413Z,8.88
2019-05-26T17:32:40.740Z,8.88
2019-05-26T17:36:42.881Z,8.84
2019-05-26T17:40:45.912Z,8.89
2019-05-26T17:44:48.052Z,8.86
2019-05-26T17:48:50.456Z,8.90
2019-05-26T17:52:52.679Z,8.86
2019-05-26T17:56:54.835Z,8.80
2019-05-26T18:00:56.958Z,8.84
2019-05-26T18:04:59.097Z,8.82
2019-05-26T18:09:01.202Z,8.78
2019-05-26T18:13:04.884Z,8.79
2019-05-26T18:17:07.053Z,8.71
2019-05-26T18:21:09.166Z,8.78
2019-05-26T18:25:13.520Z,8.74
2019-05-26T18:29:15.654Z,8.67
2019-05-26T18:33:17.735Z,8.63
2019-05-26T18:37:19.801Z,8.56
2019-05-26T18:41:21.912Z,8.60
2019-05-26T18:45:24.045Z,8.62
2019-05-26T18:49:26.282Z,8.62
2019-05-26T18:53:29.852Z,8.63
2019-05-26T18:57:32.152Z,8.62
2019-05-26T19:01:34.597Z,8.59
2019-05-26T19:05:38.521Z,8.58
2019-05-26T19:09:40.619Z,8.59
2019-05-26T19:13:43.030Z,8.61
2019-05-26T19:17:45.471Z,8.63
2019-05-26T19:21:47.618Z,8.69
2019-05-26T19:25:50.066Z,8.68
2019-05-26T19:29:52.056Z,8.65
2019-05-26T19:33:54.089Z,8.66
2019-05-26T19:37:56.201Z,8.68
2019-05-26T19:41:58.234Z,8.67
2019-05-26T19:46:00.417Z,8.68
2019-05-26T19:50:02.385Z,8.66
2019-05-26T19:54:04.621Z,8.64
2019-05-26T19:58:06.849Z,8.66
2019-05-26T20:02:18.401Z,8.64
2019-05-26T20:06:13.250Z,8.66
2019-05-26T20:10:15.714Z,8.64
2019-05-26T20:14:17.721Z,8.66
2019-05-26T20:18:20.072Z,8.62
2019-05-26T20:22:24.530Z,8.58
2019-05-26T20:26:26.024Z,8.58
2019-05-26T20:30:29.816Z,8.60
2019-05-26T20:34:32.234Z,8.59
2019-05-26T20:38:34.355Z,8.57
2019-05-26T20:42:36.470Z,8.59
2019-05-26T20:46:38.540Z,8.55
2019-05-26T20:50:40.648Z,8.53
2019-05-26T20:54:42.789Z,8.53
2019-05-26T20:58:44.914Z,8.55
2019-05-26T21:02:47.048Z,8.56
2019-05-26T21:06:49.280Z,8.54
2019-05-26T21:10:51.389Z,8.51
2019-05-26T21:14:53.518Z,8.51
2019-05-26T21:18:55.640Z,8.50
2019-05-26T21:22:57.799Z,8.50
2019-05-26T21:26:59.812Z,8.55
2019-05-26T21:31:01.819Z,8.57
2019-05-26T21:35:04.170Z,8.58
2019-05-26T21:39:07.936Z,8.64
2019-05-26T21:43:10.076Z,8.68
2019-05-26T21:47:12.315Z,8.68
2019-05-26T21:51:14.436Z,8.66
2019-05-26T21:55:16.538Z,8.66
2019-05-26T21:59:19.605Z,8.65
2019-05-26T22:03:21.717Z,8.66
2019-05-26T22:07:23.958Z,8.66
2019-05-26T22:11:26.176Z,8.63
2019-05-26T22:15:28.592Z,8.64
2019-05-26T22:19:30.821Z,8.65
2019-05-26T22:23:33.192Z,8.66
2019-05-26T22:27:35.638Z,8.65
2019-05-26T22:31:38.983Z,8.67
2019-05-26T22:35:41.524Z,8.67
2019-05-26T22:39:43.817Z,8.67
2019-05-26T22:43:46.155Z,8.61
2019-05-26T22:47:48.477Z,8.61
2019-05-26T22:51:50.859Z,8.62
2019-05-26T22:55:53.035Z,8.58
2019-05-26T22:59:55.371Z,8.57
2019-05-26T23:03:57.645Z,8.61
2019-05-26T23:07:59.951Z,8.62
2019-05-26T23:12:02.184Z,8.63
2019-05-26T23:16:04.785Z,8.60
2019-05-26T23:20:07.443Z,8.62
2019-05-26T23:24:09.833Z,8.59
2019-05-26T23:28:12.137Z,8.63
2019-05-26T23:32:14.259Z,8.66
2019-05-26T23:36:16.207Z,8.66
2019-05-26T23:40:18.450Z,8.66
2019-05-26T23:44:20.988Z,8.64
2019-05-26T23:48:23.117Z,8.57
2019-05-26T23:52:25.214Z,8.44
2019-05-26T23:56:27.365Z,8.31
